Irun, Spain
Current Conditions -  °F | °C
As of 8:30 PM on Wednesday 17 Dec 2014 (Local Time) from LESO Reporting Station
Broken Clouds Broken Clouds  
Wind Chill: 57°   Ceiling: 4200
Heat Index: 57°   Visibility: 6mi
Dew Point: 48°   Wind: 7mph
Humidity: 72%   Direction: NA
Pressure: 30.36"   Gusts: 20mph
Location:  43.34°N, 1.79°W
Report Text: LESO 171930Z VRB06G17KT 9999 FEW020 SCT030 BKN042 14/09 Q1028
Loading
Personal Weather Stations






























Interactive Weather Map New forecast layout! Learn more

10-Day Weather Forecast

Advertisements
Track Severe Weather on mobile